Time;durP1;ratioP1;P1;durP2;ratioP2;P2;SDS_P1;SDS_P2;PMS_P1;PMS_P2;Temp;Humidity;BMP_temperature;BMP_pressure;BME280_temperature;BME280_humidity;BME280_pressure;Samples;Min_cycle;Max_cycle;Signal;HPM_P1;HPM_P2
2021/09/13 00:02:00;;;;;;;11.65;3.35;;;15.80;99.90;;;;;;5094251;28;20460;-77
2021/09/13 00:04:25;;;;;;;11.02;3.17;;;15.80;99.90;;;;;;5094246;28;20083;-76
2021/09/13 00:06:51;;;;;;;9.15;2.47;;;15.80;99.90;;;;;;5093812;28;20036;-76
2021/09/13 00:09:16;;;;;;;14.88;3.00;;;15.80;99.90;;;;;;5093607;28;20040;-76
2021/09/13 00:11:42;;;;;;;9.52;2.95;;;15.80;99.90;;;;;;5092316;28;20043;-76
2021/09/13 00:14:08;;;;;;;9.32;3.22;;;15.80;99.90;;;;;;5093563;28;20032;-76
2021/09/13 00:16:34;;;;;;;9.65;2.33;;;15.80;99.90;;;;;;5092260;28;20047;-76
2021/09/13 00:18:59;;;;;;;5.63;2.60;;;15.90;99.90;;;;;;5092353;28;20419;-76
2021/09/13 00:21:25;;;;;;;7.40;2.80;;;15.90;99.90;;;;;;5092502;28;20036;-76
2021/09/13 00:23:50;;;;;;;8.93;2.75;;;15.90;99.90;;;;;;5092691;28;20032;-76
2021/09/13 00:26:16;;;;;;;8.25;3.55;;;15.90;99.90;;;;;;5092234;28;20050;-77
2021/09/13 00:28:42;;;;;;;8.85;2.88;;;15.80;99.90;;;;;;5093632;28;20032;-76
2021/09/13 00:31:07;;;;;;;10.52;2.88;;;15.90;99.90;;;;;;5093530;28;20047;-76
2021/09/13 00:33:33;;;;;;;10.82;3.10;;;15.90;99.90;;;;;;5093387;28;20094;-76
2021/09/13 00:35:58;;;;;;;5.13;2.55;;;15.90;99.90;;;;;;5075610;28;20040;-76
2021/09/13 00:38:24;;;;;;;9.57;2.95;;;15.90;99.90;;;;;;5093288;28;20046;-76
2021/09/13 00:40:50;;;;;;;9.90;3.20;;;15.90;99.90;;;;;;5092884;28;20419;-76
2021/09/13 00:43:16;;;;;;;8.88;3.15;;;15.90;99.90;;;;;;5091959;28;20078;-76
2021/09/13 00:45:42;;;;;;;4.93;2.80;;;15.90;99.90;;;;;;5092450;28;20052;-76
2021/09/13 00:48:07;;;;;;;9.30;3.30;;;15.90;99.90;;;;;;5093366;28;20502;-77
2021/09/13 00:50:33;;;;;;;6.72;2.45;;;15.90;99.90;;;;;;5092947;28;20047;-76
2021/09/13 00:52:59;;;;;;;5.07;2.65;;;16.00;99.90;;;;;;5093146;28;20044;-76
2021/09/13 00:55:25;;;;;;;8.23;2.88;;;15.90;99.90;;;;;;5093549;28;20071;-76
2021/09/13 00:57:52;;;;;;;9.00;2.65;;;15.90;99.90;;;;;;5097291;28;20122;-76
2021/09/13 01:00:18;;;;;;;7.47;2.90;;;15.90;99.90;;;;;;5096375;28;20040;-76
2021/09/13 01:02:44;;;;;;;13.32;3.30;;;15.90;99.90;;;;;;5095997;28;20101;-76
2021/09/13 01:05:10;;;;;;;7.22;2.70;;;15.90;99.90;;;;;;5095945;28;20500;-76
2021/09/13 01:07:36;;;;;;;6.57;3.03;;;15.90;99.90;;;;;;5097177;28;20035;-76
2021/09/13 01:10:03;;;;;;;11.65;3.90;;;15.90;99.90;;;;;;5096934;28;20418;-76
2021/09/13 01:12:29;;;;;;;11.55;3.38;;;15.80;99.90;;;;;;5097474;28;20427;-76
2021/09/13 01:14:54;;;;;;;8.52;2.83;;;15.80;99.90;;;;;;5096859;28;20132;-77
2021/09/13 01:17:20;;;;;;;5.30;3.00;;;15.80;99.90;;;;;;5096961;28;20076;-76
2021/09/13 01:19:46;;;;;;;12.32;3.63;;;15.80;99.90;;;;;;5095366;28;20119;-76
2021/09/13 01:22:13;;;;;;;9.68;2.72;;;15.80;99.90;;;;;;5095773;28;20464;-76
2021/09/13 01:24:39;;;;;;;7.70;2.90;;;15.70;99.90;;;;;;5097127;28;20085;-76
2021/09/13 01:27:08;;;;;;;7.55;2.75;;;15.70;99.90;;;;;;5095704;28;20032;-76
2021/09/13 01:29:35;;;;;;;9.27;2.85;;;15.70;99.90;;;;;;5096729;28;20155;-76
2021/09/13 01:32:01;;;;;;;9.13;2.90;;;15.70;99.90;;;;;;5095386;28;20083;-76
2021/09/13 01:34:27;;;;;;;11.70;2.80;;;15.70;99.90;;;;;;5096601;28;20082;-76
2021/09/13 01:36:53;;;;;;;9.73;2.85;;;15.60;99.90;;;;;;5095821;28;20036;-76
2021/09/13 01:39:19;;;;;;;8.02;2.97;;;15.70;99.90;;;;;;5096398;28;20083;-76
2021/09/13 01:41:48;;;;;;;10.35;2.78;;;15.60;99.90;;;;;;5095699;28;20044;-76
2021/09/13 01:44:15;;;;;;;8.63;2.50;;;15.60;99.90;;;;;;5095684;28;20055;-76
2021/09/13 01:46:42;;;;;;;9.73;3.00;;;15.60;99.90;;;;;;5097037;28;20036;-76
2021/09/13 01:49:09;;;;;;;8.80;3.25;;;15.60;99.90;;;;;;5094453;28;20121;-76
2021/09/13 01:51:35;;;;;;;9.30;2.50;;;15.70;99.90;;;;;;5096443;28;20495;-77
2021/09/13 01:54:01;;;;;;;5.82;2.40;;;15.70;99.90;;;;;;5096160;28;20036;-76
2021/09/13 01:56:27;;;;;;;7.53;2.47;;;15.70;99.90;;;;;;5096893;28;20043;-76
2021/09/13 01:58:53;;;;;;;7.70;3.00;;;15.70;99.90;;;;;;5096244;28;20119;-76
2021/09/13 02:01:20;;;;;;;8.10;3.35;;;15.70;99.90;;;;;;5094881;28;20124;-77
2021/09/13 02:03:47;;;;;;;12.85;3.50;;;15.70;99.90;;;;;;5078129;28;20128;-77
2021/09/13 02:06:13;;;;;;;8.65;3.00;;;15.70;99.90;;;;;;5096426;28;20384;-77
2021/09/13 02:08:39;;;;;;;14.38;3.17;;;15.70;99.90;;;;;;5093804;28;20048;-77
2021/09/13 02:11:06;;;;;;;11.55;3.28;;;15.70;99.90;;;;;;5095842;28;20345;-77
2021/09/13 02:13:32;;;;;;;8.60;2.85;;;15.70;99.90;;;;;;5094708;28;20040;-77
2021/09/13 02:15:58;;;;;;;11.70;2.88;;;15.70;99.90;;;;;;5096047;28;20047;-76
2021/09/13 02:18:24;;;;;;;12.90;3.05;;;15.70;99.90;;;;;;5094595;28;20036;-77
2021/09/13 02:20:49;;;;;;;8.95;2.70;;;15.80;99.90;;;;;;5095367;28;20101;-76
2021/09/13 02:23:15;;;;;;;10.05;3.15;;;15.80;99.90;;;;;;5095857;28;20051;-76
2021/09/13 02:25:41;;;;;;;10.60;2.63;;;15.80;99.90;;;;;;5095108;28;20043;-76
2021/09/13 02:28:07;;;;;;;10.18;2.97;;;15.70;99.90;;;;;;5094595;28;20032;-77
2021/09/13 02:30:33;;;;;;;10.43;3.13;;;15.70;99.90;;;;;;5095577;28;20107;-77
2021/09/13 02:32:58;;;;;;;9.55;3.13;;;15.70;99.90;;;;;;5095516;28;20040;-77
2021/09/13 02:35:24;;;;;;;12.90;3.08;;;15.80;99.90;;;;;;5095716;28;20463;-77
2021/09/13 02:37:50;;;;;;;10.60;3.90;;;15.70;99.90;;;;;;5094617;28;20472;-77
2021/09/13 02:40:15;;;;;;;12.52;3.05;;;15.70;99.90;;;;;;5077232;28;20044;-77
2021/09/13 02:42:41;;;;;;;9.73;3.28;;;15.70;99.90;;;;;;5077850;28;20058;-77
2021/09/13 02:45:07;;;;;;;9.85;3.47;;;15.70;99.90;;;;;;5095729;28;20036;-77
2021/09/13 02:47:33;;;;;;;13.15;3.65;;;15.70;99.90;;;;;;5095667;28;20090;-77
2021/09/13 02:49:58;;;;;;;9.98;3.00;;;15.60;99.90;;;;;;5095537;28;20032;-77
2021/09/13 02:52:24;;;;;;;8.40;3.38;;;15.60;99.90;;;;;;5095158;28;20082;-76
2021/09/13 02:54:50;;;;;;;9.90;3.40;;;15.70;99.90;;;;;;5093872;28;20083;-77
2021/09/13 02:57:15;;;;;;;9.73;3.10;;;15.60;99.90;;;;;;5095476;28;20036;-77
2021/09/13 02:59:41;;;;;;;13.27;3.30;;;15.60;99.90;;;;;;5095011;28;20040;-77
2021/09/13 03:02:06;;;;;;;6.93;3.28;;;15.70;99.90;;;;;;5095272;28;20112;-76
2021/09/13 03:04:32;;;;;;;9.63;3.17;;;15.70;99.90;;;;;;5095364;28;20036;-77
2021/09/13 03:06:58;;;;;;;10.30;2.40;;;15.60;99.90;;;;;;5095296;28;20416;-76
2021/09/13 03:09:23;;;;;;;9.45;3.00;;;15.70;99.90;;;;;;5094688;28;20111;-77
2021/09/13 03:11:49;;;;;;;9.35;2.75;;;15.70;99.90;;;;;;5094735;28;20039;-77
2021/09/13 03:14:14;;;;;;;9.27;3.05;;;15.70;99.90;;;;;;5094578;28;20117;-77
2021/09/13 03:16:40;;;;;;;11.20;3.03;;;15.60;99.90;;;;;;5095315;28;20040;-77
2021/09/13 03:19:06;;;;;;;9.63;2.58;;;15.60;99.90;;;;;;5093967;28;20040;-77
2021/09/13 03:21:31;;;;;;;9.15;2.95;;;15.60;99.90;;;;;;5094863;28;20111;-76
2021/09/13 03:23:57;;;;;;;10.50;3.60;;;15.60;99.90;;;;;;5093172;28;20044;-77
2021/09/13 03:26:23;;;;;;;13.00;3.22;;;15.60;99.90;;;;;;5076286;28;20186;-77
2021/09/13 03:28:49;;;;;;;13.95;3.30;;;15.60;99.90;;;;;;5093267;28;20043;-77
2021/09/13 03:31:14;;;;;;;10.23;2.80;;;15.60;99.90;;;;;;5094324;28;20079;-77
2021/09/13 03:33:40;;;;;;;10.13;3.10;;;15.50;99.90;;;;;;5093083;28;20127;-77
2021/09/13 03:36:05;;;;;;;7.97;2.65;;;15.60;99.90;;;;;;5094250;28;20105;-77
2021/09/13 03:38:32;;;;;;;8.23;2.67;;;15.50;99.90;;;;;;5093054;28;20040;-77
2021/09/13 03:40:58;;;;;;;9.68;2.92;;;15.50;99.90;;;;;;5093069;28;20031;-76
2021/09/13 03:43:25;;;;;;;8.20;2.38;;;15.50;99.90;;;;;;5094188;28;20124;-77
2021/09/13 03:45:50;;;;;;;9.05;3.25;;;15.50;99.90;;;;;;5092967;28;20442;-77
2021/09/13 03:48:16;;;;;;;6.80;2.33;;;15.50;99.90;;;;;;5094100;28;20043;-77
2021/09/13 03:50:42;;;;;;;9.43;2.70;;;15.50;99.90;;;;;;5093760;28;20047;-77
2021/09/13 03:53:08;;;;;;;14.05;3.38;;;15.50;99.90;;;;;;5094359;28;20036;-77
2021/09/13 03:55:35;;;;;;;8.38;2.90;;;15.50;99.90;;;;;;5093845;28;20039;-76
2021/09/13 03:58:05;;;;;;;8.20;2.83;;;15.50;99.90;;;;;;5092616;28;20124;-76
2021/09/13 04:00:31;;;;;;;9.10;2.67;;;15.50;99.90;;;;;;5093606;28;20047;-77
2021/09/13 04:02:56;;;;;;;8.40;2.83;;;15.50;99.90;;;;;;5093681;28;20042;-77
2021/09/13 04:05:24;;;;;;;6.65;2.35;;;15.50;99.90;;;;;;5094059;28;20123;-77
2021/09/13 04:13:03;;;;;;;9.52;2.67;;;15.40;99.90;;;;;;5093337;28;20047;-78
2021/09/13 04:15:29;;;;;;;6.40;2.95;;;15.40;99.90;;;;;;5073950;28;20040;-77
2021/09/13 04:17:54;;;;;;;7.85;2.50;;;15.40;99.90;;;;;;5073499;28;20103;-77
2021/09/13 04:20:22;;;;;;;6.93;2.40;;;15.30;99.90;;;;;;5071650;28;20094;-77
2021/09/13 04:22:48;;;;;;;8.15;2.97;;;15.30;99.90;;;;;;5071933;28;20043;-76
2021/09/13 04:25:13;;;;;;;9.75;3.45;;;15.30;99.90;;;;;;5071999;28;20461;-77
2021/09/13 04:27:39;;;;;;;14.82;2.95;;;15.30;99.90;;;;;;5073551;28;20472;-77
2021/09/13 04:30:06;;;;;;;8.98;3.22;;;15.30;99.90;;;;;;5072564;28;20040;-77
2021/09/13 04:32:31;;;;;;;8.20;3.00;;;15.20;99.90;;;;;;5072963;28;20397;-77
2021/09/13 04:34:57;;;;;;;4.93;2.47;;;15.20;99.90;;;;;;5073678;28;20052;-77
2021/09/13 04:37:23;;;;;;;6.03;2.45;;;15.20;99.90;;;;;;5073272;28;20037;-77
2021/09/13 04:39:49;;;;;;;16.30;3.00;;;15.00;99.90;;;;;;5073262;28;20033;-79
2021/09/13 04:42:15;;;;;;;9.55;2.75;;;15.10;99.90;;;;;;5073419;28;20068;-74
2021/09/13 04:44:43;;;;;;;8.38;2.85;;;15.00;99.90;;;;;;5073374;28;20040;-75
2021/09/13 04:47:09;;;;;;;9.20;3.53;;;15.00;99.90;;;;;;5071817;28;20406;-75
2021/09/13 04:49:34;;;;;;;6.68;2.70;;;15.00;99.90;;;;;;5071530;28;20094;-75
2021/09/13 04:52:00;;;;;;;6.72;2.47;;;14.90;99.90;;;;;;5071886;28;20109;-76
2021/09/13 04:54:26;;;;;;;5.57;2.90;;;14.90;99.90;;;;;;5071693;28;20513;-76
2021/09/13 04:56:51;;;;;;;11.15;2.95;;;14.90;99.90;;;;;;5071745;28;20094;-76
2021/09/13 04:59:17;;;;;;;8.10;3.05;;;14.80;99.90;;;;;;5071434;28;20041;-75
2021/09/13 05:01:42;;;;;;;6.85;2.83;;;14.80;99.90;;;;;;5072871;28;20033;-76
2021/09/13 05:04:09;;;;;;;9.48;2.85;;;14.80;99.90;;;;;;5073116;28;20044;-76
2021/09/13 05:06:37;;;;;;;9.15;2.45;;;14.80;99.90;;;;;;5055653;28;20075;-75
2021/09/13 05:09:03;;;;;;;8.00;2.75;;;14.80;99.90;;;;;;5073077;28;20037;-75
2021/09/13 05:11:29;;;;;;;10.02;2.70;;;14.70;99.90;;;;;;5071907;28;20063;-76
2021/09/13 05:13:54;;;;;;;15.00;3.53;;;14.70;99.90;;;;;;5073042;28;20473;-76
2021/09/13 05:16:20;;;;;;;9.05;2.80;;;14.70;99.90;;;;;;5072209;28;20040;-76
2021/09/13 05:18:46;;;;;;;11.60;3.40;;;14.70;99.90;;;;;;5071823;28;20040;-76
2021/09/13 05:21:12;;;;;;;7.55;3.20;;;14.70;99.90;;;;;;5071257;28;20381;-75
2021/09/13 05:23:38;;;;;;;9.05;2.97;;;14.70;99.90;;;;;;5072816;28;20040;-75
2021/09/13 05:26:04;;;;;;;9.77;2.92;;;14.70;99.90;;;;;;5072722;28;20037;-76
2021/09/13 05:28:30;;;;;;;9.48;2.95;;;14.70;99.90;;;;;;5071260;28;20040;-76
2021/09/13 05:30:57;;;;;;;7.05;2.78;;;14.70;99.90;;;;;;5072627;28;20048;-76
2021/09/13 05:33:22;;;;;;;5.88;2.85;;;14.70;99.90;;;;;;5071438;28;20098;-76
2021/09/13 05:35:48;;;;;;;9.43;3.58;;;14.70;99.90;;;;;;5071361;28;20045;-75
2021/09/13 05:38:14;;;;;;;17.65;4.75;;;14.70;99.90;;;;;;5072647;28;20032;-73
2021/09/13 05:40:41;;;;;;;10.07;3.60;;;14.70;99.90;;;;;;5071018;28;20037;-73
2021/09/13 05:43:07;;;;;;;8.73;3.45;;;14.70;99.90;;;;;;5073909;28;20084;-73
2021/09/13 05:45:34;;;;;;;14.10;3.55;;;14.60;99.90;;;;;;5076165;28;20040;-73
2021/09/13 05:48:00;;;;;;;14.35;3.55;;;14.70;99.90;;;;;;5076458;28;20098;-73
2021/09/13 05:50:26;;;;;;;9.75;3.90;;;14.70;99.90;;;;;;5074692;28;20603;-73
2021/09/13 05:52:52;;;;;;;9.85;4.40;;;14.60;99.90;;;;;;5058038;28;20086;-73
2021/09/13 05:55:17;;;;;;;14.55;3.58;;;14.60;99.90;;;;;;5076313;28;20032;-73
2021/09/13 05:57:43;;;;;;;11.40;3.53;;;14.60;99.90;;;;;;5076528;28;20122;-74
2021/09/13 06:00:09;;;;;;;13.95;3.40;;;14.70;99.90;;;;;;5076215;28;20183;-73
2021/09/13 06:02:35;;;;;;;11.90;3.92;;;14.70;99.90;;;;;;5074641;28;20037;-73
2021/09/13 06:05:00;;;;;;;17.05;4.63;;;14.70;99.90;;;;;;5076316;28;20060;-73
2021/09/13 06:07:26;;;;;;;8.85;3.20;;;14.70;99.90;;;;;;5075931;28;20127;-73
2021/09/13 06:09:51;;;;;;;10.15;3.85;;;14.60;99.90;;;;;;5075720;28;20064;-74
2021/09/13 06:12:17;;;;;;;11.90;3.95;;;14.70;99.90;;;;;;5075637;28;20384;-73
2021/09/13 06:14:43;;;;;;;11.05;4.10;;;14.60;99.90;;;;;;5075755;28;20051;-74
2021/09/13 06:17:13;;;;;;;10.55;3.53;;;14.70;99.90;;;;;;5075672;28;20040;-73
2021/09/13 06:19:39;;;;;;;11.20;3.92;;;14.70;99.90;;;;;;5074118;28;20120;-74
2021/09/13 06:22:04;;;;;;;14.52;4.47;;;15.00;99.90;;;;;;5074185;28;20040;-74
2021/09/13 06:24:31;;;;;;;11.05;3.88;;;15.20;99.90;;;;;;5074769;28;20044;-74
2021/09/13 06:26:57;;;;;;;9.60;3.97;;;15.40;99.90;;;;;;5075618;28;20075;-74
2021/09/13 06:29:22;;;;;;;8.43;3.83;;;15.50;99.90;;;;;;5073994;28;20083;-74
2021/09/13 06:31:49;;;;;;;11.02;4.28;;;15.70;99.90;;;;;;5075388;28;20064;-74
2021/09/13 06:34:17;;;;;;;10.82;3.90;;;15.90;99.90;;;;;;5075744;28;20554;-74
2021/09/13 06:36:43;;;;;;;12.80;4.00;;;16.10;99.90;;;;;;5057707;28;20393;-74
2021/09/13 06:39:09;;;;;;;9.25;4.13;;;16.40;99.90;;;;;;5075043;28;20048;-74
2021/09/13 06:41:35;;;;;;;11.20;3.92;;;16.40;99.90;;;;;;5075371;28;20406;-74
2021/09/13 06:44:01;;;;;;;10.32;3.38;;;16.50;99.90;;;;;;5074177;28;20059;-74
2021/09/13 06:46:35;;;;;;;11.15;3.67;;;16.50;99.90;;;;;;5075591;28;20052;-74
2021/09/13 06:49:01;;;;;;;10.27;3.08;;;16.50;99.90;;;;;;5075085;28;20040;-74
2021/09/13 06:51:29;;;;;;;6.57;3.58;;;16.60;99.90;;;;;;5074882;28;20396;-74
2021/09/13 06:53:55;;;;;;;8.73;3.15;;;16.60;99.90;;;;;;5075017;28;20036;-74
2021/09/13 06:56:20;;;;;;;11.48;4.15;;;16.50;99.90;;;;;;5075407;28;20546;-74
2021/09/13 06:58:49;;;;;;;10.23;3.45;;;16.50;99.90;;;;;;5074824;28;20029;-74
2021/09/13 07:01:15;;;;;;;6.90;3.13;;;16.40;99.90;;;;;;5074790;28;20029;-74
2021/09/13 07:03:41;;;;;;;8.05;3.42;;;16.40;99.90;;;;;;5074822;28;20040;-74
2021/09/13 07:06:07;;;;;;;10.10;4.25;;;16.40;99.90;;;;;;5075038;28;20036;-74
2021/09/13 07:08:32;;;;;;;8.48;3.45;;;16.40;99.90;;;;;;5057042;28;20055;-74
2021/09/13 07:10:59;;;;;;;10.98;4.10;;;16.40;99.90;;;;;;5073726;28;20393;-74
2021/09/13 07:13:25;;;;;;;9.07;4.40;;;16.40;99.90;;;;;;5073764;28;20378;-74
2021/09/13 07:15:50;;;;;;;10.40;3.60;;;16.50;99.90;;;;;;5074579;28;20101;-73
2021/09/13 07:18:16;;;;;;;12.52;3.45;;;16.70;99.90;;;;;;5074635;28;20052;-73
2021/09/13 07:20:45;;;;;;;10.23;3.60;;;17.00;99.90;;;;;;5073043;28;20040;-74
2021/09/13 07:23:10;;;;;;;8.65;3.10;;;17.10;99.90;;;;;;5072997;28;20182;-73
2021/09/13 07:25:36;;;;;;;9.02;2.60;;;17.10;99.90;;;;;;5074367;28;20097;-73
2021/09/13 07:28:02;;;;;;;6.78;2.70;;;17.10;99.90;;;;;;5074225;28;20062;-73
2021/09/13 07:30:28;;;;;;;12.20;2.63;;;17.10;99.90;;;;;;5074128;28;20056;-73
2021/09/13 07:32:54;;;;;;;10.02;2.45;;;17.10;99.90;;;;;;5074074;28;20042;-73
2021/09/13 07:35:20;;;;;;;7.40;2.25;;;17.20;99.90;;;;;;5074639;28;20045;-73
2021/09/13 07:37:46;;;;;;;9.13;2.20;;;17.20;99.90;;;;;;5056411;28;20099;-73
2021/09/13 07:40:12;;;;;;;9.63;3.22;;;17.30;99.90;;;;;;5072493;28;20036;-73
2021/09/13 07:42:39;;;;;;;8.65;2.40;;;17.40;99.90;;;;;;5072731;28;20047;-73
2021/09/13 07:45:06;;;;;;;6.78;1.95;;;17.50;99.90;;;;;;5074240;28;20052;-73
2021/09/13 07:47:32;;;;;;;8.77;2.00;;;17.40;99.90;;;;;;5074121;28;20123;-72
2021/09/13 07:49:58;;;;;;;5.05;1.95;;;17.40;99.90;;;;;;5073843;28;20119;-73
2021/09/13 07:52:27;;;;;;;7.35;2.63;;;17.40;99.90;;;;;;5072705;28;20047;-73
2021/09/13 07:54:53;;;;;;;10.70;2.78;;;17.30;99.90;;;;;;5056398;28;20040;-73
2021/09/13 07:57:18;;;;;;;8.88;1.85;;;17.30;99.90;;;;;;5073951;28;20086;-73
2021/09/13 07:59:44;;;;;;;5.93;1.90;;;17.30;99.90;;;;;;5073416;28;20040;-72
2021/09/13 08:02:12;;;;;;;8.05;2.85;;;17.20;99.90;;;;;;5072373;28;20119;-72
2021/09/13 08:04:38;;;;;;;6.30;2.20;;;17.20;99.90;;;;;;5072415;28;20048;-73
2021/09/13 08:07:04;;;;;;;8.20;2.22;;;17.30;99.90;;;;;;5072393;28;20047;-73
2021/09/13 08:09:29;;;;;;;7.22;2.47;;;17.30;99.90;;;;;;5072419;28;20044;-73
2021/09/13 08:11:55;;;;;;;8.23;2.08;;;17.30;99.90;;;;;;5073568;28;20036;-73
2021/09/13 08:14:20;;;;;;;5.65;2.13;;;17.30;99.90;;;;;;5072653;28;20115;-72
2021/09/13 08:16:46;;;;;;;9.65;2.28;;;17.40;99.90;;;;;;5073863;28;20036;-72
2021/09/13 08:19:11;;;;;;;6.75;2.38;;;17.20;99.90;;;;;;5073478;28;20043;-72
2021/09/13 08:21:40;;;;;;;6.75;2.03;;;17.40;99.90;;;;;;5073105;28;20086;-72
2021/09/13 08:24:07;;;;;;;7.63;2.08;;;17.40;99.90;;;;;;5072353;28;20439;-75
2021/09/13 08:26:33;;;;;;;9.15;2.47;;;17.50;99.90;;;;;;5073848;28;20049;-73
2021/09/13 08:28:58;;;;;;;3.90;1.85;;;17.50;99.90;;;;;;5073020;28;20028;-72
2021/09/13 08:31:24;;;;;;;7.40;1.73;;;17.60;99.90;;;;;;5072210;28;20512;-73
2021/09/13 08:33:49;;;;;;;8.00;1.95;;;17.70;99.90;;;;;;5073360;28;20051;-73
2021/09/13 08:36:16;;;;;;;6.10;2.13;;;17.70;99.90;;;;;;5072155;28;20033;-73
2021/09/13 08:38:42;;;;;;;7.15;1.90;;;17.70;99.90;;;;;;5073411;28;20098;-73
2021/09/13 08:41:08;;;;;;;6.28;1.25;;;17.70;99.90;;;;;;5073707;28;20123;-73
2021/09/13 08:43:34;;;;;;;5.63;1.50;;;17.60;99.90;;;;;;5073382;28;20083;-74
2021/09/13 08:46:14;;;;;;;4.53;1.48;;;17.60;99.90;;;;;;5073543;28;20483;-73
2021/09/13 08:51:18;;;;;;;4.43;1.30;;;17.60;99.90;;;;;;5073200;28;20052;-73
2021/09/13 08:53:50;;;;;;;2.65;1.13;;;17.60;99.90;;;;;;5055106;28;20051;-73
2021/09/13 08:56:17;;;;;;;3.97;1.40;;;17.50;99.90;;;;;;5073400;28;20040;-73
2021/09/13 08:58:45;;;;;;;3.95;1.23;;;17.40;99.90;;;;;;5054823;28;20043;-73
2021/09/13 09:01:12;;;;;;;6.05;1.30;;;17.30;99.90;;;;;;5073426;28;20036;-73
2021/09/13 09:03:39;;;;;;;7.70;1.33;;;17.20;99.90;;;;;;5072953;28;20094;-73
2021/09/13 09:06:06;;;;;;;6.50;1.42;;;17.20;99.90;;;;;;5073548;28;20094;-73
2021/09/13 09:08:33;;;;;;;7.97;1.58;;;17.30;99.90;;;;;;5072989;28;20043;-73
2021/09/13 09:11:04;;;;;;;4.35;1.30;;;17.30;99.90;;;;;;5054967;28;20032;-73
2021/09/13 09:13:42;;;;;;;5.85;1.15;;;17.40;99.90;;;;;;5071894;28;20041;-73
2021/09/13 09:16:09;;;;;;;4.57;1.50;;;17.40;99.90;;;;;;5073256;28;20544;-74
2021/09/13 09:18:41;;;;;;;6.90;1.55;;;17.40;99.90;;;;;;5075150;28;20435;-74
2021/09/13 09:21:09;;;;;;;2.88;1.10;;;17.40;99.90;;;;;;5076569;28;20513;-73
2021/09/13 09:24:13;;;;;;;6.50;1.42;;;17.30;99.90;;;;;;5075776;28;20044;-73
2021/09/13 09:26:38;;;;;;;3.40;1.17;;;17.40;99.90;;;;;;5058491;28;20052;-74
2021/09/13 09:29:04;;;;;;;5.10;1.48;;;17.30;99.90;;;;;;5076270;28;20040;-73
2021/09/13 09:31:40;;;;;;;6.10;1.55;;;17.40;99.90;;;;;;5076494;28;20116;-74
2021/09/13 09:34:19;;;;;;;4.80;1.35;;;17.40;99.90;;;;;;5058420;28;20045;-74
2021/09/13 09:37:10;;;;;;;6.40;1.85;;;17.40;99.90;;;;;;5076999;28;20490;-74
2021/09/13 09:39:56;;;;;;;4.90;1.20;;;17.20;99.90;;;;;;5076315;28;20036;-74
2021/09/13 09:42:33;;;;;;;5.38;1.40;;;17.00;99.90;;;;;;5074972;28;20037;-74
2021/09/13 09:45:05;;;;;;;4.57;1.60;;;17.00;99.90;;;;;;5076417;28;20086;-73
2021/09/13 09:47:31;;;;;;;2.17;1.05;;;16.70;99.90;;;;;;5076778;28;20536;-74
2021/09/13 09:49:58;;;;;;;4.93;1.20;;;16.80;99.90;;;;;;5075907;28;20090;-74
2021/09/13 09:52:32;;;;;;;6.20;2.15;;;16.70;99.90;;;;;;5076520;28;20135;-74
2021/09/13 09:55:08;;;;;;;2.90;1.55;;;16.70;99.90;;;;;;5076362;28;20041;-74
2021/09/13 09:57:36;;;;;;;3.33;1.15;;;16.80;99.90;;;;;;5076331;28;20463;-74
2021/09/13 10:00:18;;;;;;;4.93;1.80;;;16.70;99.90;;;;;;5075825;28;20498;-74
2021/09/13 10:02:44;;;;;;;2.97;1.00;;;16.80;99.90;;;;;;5076035;28;20041;-72
2021/09/13 10:05:09;;;;;;;4.72;0.85;;;16.70;99.90;;;;;;5075051;28;20047;-72
2021/09/13 10:07:36;;;;;;;3.15;0.80;;;16.80;99.90;;;;;;5076253;28;20037;-73
2021/09/13 10:10:02;;;;;;;4.95;1.08;;;16.90;99.90;;;;;;5074782;28;20385;-74
2021/09/13 10:12:28;;;;;;;5.13;1.00;;;16.90;99.90;;;;;;5075903;28;20041;-74
2021/09/13 10:14:54;;;;;;;3.22;0.93;;;17.00;99.90;;;;;;5075613;28;20558;-74
2021/09/13 10:17:19;;;;;;;4.05;0.90;;;17.00;99.90;;;;;;5074838;28;20041;-74
2021/09/13 10:19:45;;;;;;;6.63;0.90;;;17.10;99.90;;;;;;5073941;28;20048;-75
2021/09/13 10:22:11;;;;;;;3.55;1.17;;;17.40;99.90;;;;;;5075893;28;20029;-75
2021/09/13 10:24:39;;;;;;;4.43;1.23;;;17.50;99.90;;;;;;5074948;28;20080;-76
2021/09/13 10:27:09;;;;;;;3.72;0.77;;;17.80;99.90;;;;;;5057627;28;20055;-75
2021/09/13 10:29:35;;;;;;;5.32;0.80;;;18.00;99.90;;;;;;5074179;28;20045;-75
2021/09/13 10:32:12;;;;;;;3.78;0.80;;;18.20;99.90;;;;;;5074210;28;20055;-74
2021/09/13 10:34:41;;;;;;;1.73;0.57;;;18.30;99.90;;;;;;5073235;28;20084;-75
2021/09/13 10:37:14;;;;;;;3.58;0.70;;;18.50;99.90;;;;;;5075433;28;20041;-74
2021/09/13 10:39:56;;;;;;;3.17;1.00;;;18.50;99.90;;;;;;5074325;28;20047;-75
2021/09/13 10:42:34;;;;;;;2.13;0.73;;;18.70;99.90;;;;;;5056898;28;20485;-74
2021/09/13 10:45:10;;;;;;;1.10;0.52;;;18.60;99.90;;;;;;5075505;28;20408;-75
2021/09/13 10:47:41;;;;;;;3.30;0.60;;;18.50;99.90;;;;;;5074641;28;20109;-74
2021/09/13 10:50:16;;;;;;;2.17;0.60;;;18.70;99.90;;;;;;5072815;28;20481;-75
2021/09/13 10:52:43;;;;;;;3.28;0.90;;;18.90;99.90;;;;;;5073079;28;20044;-75
2021/09/13 10:55:09;;;;;;;3.90;1.20;;;18.80;99.90;;;;;;5073528;28;20377;-75
2021/09/13 10:58:08;;;;;;;2.30;0.73;;;18.90;99.90;;;;;;5076848;28;20093;-74
2021/09/13 11:00:39;;;;;;;4.22;0.70;;;18.60;99.90;;;;;;5076758;28;20045;-74
2021/09/13 11:03:23;;;;;;;4.75;1.05;;;18.70;99.90;;;;;;5073523;28;20048;-74
2021/09/13 11:06:08;;;;;;;1.00;0.50;;;18.70;99.90;;;;;;5073407;28;20055;-74
2021/09/13 11:08:36;;;;;;;2.55;0.77;;;18.90;99.90;;;;;;5073584;28;20389;-75
2021/09/13 11:11:08;;;;;;;2.00;0.80;;;18.80;99.90;;;;;;5073929;28;20041;-75
2021/09/13 11:13:33;;;;;;;4.35;0.82;;;18.70;99.90;;;;;;5074881;28;20045;-73
2021/09/13 11:15:59;;;;;;;2.10;0.80;;;18.60;99.90;;;;;;5074913;28;20470;-75
2021/09/13 11:18:35;;;;;;;5.40;0.98;;;18.70;99.90;;;;;;5075074;28;20093;-75
2021/09/13 11:21:18;;;;;;;2.80;0.63;;;18.80;99.90;;;;;;5073204;28;20089;-75
2021/09/13 11:23:44;;;;;;;1.75;0.50;;;19.00;99.90;;;;;;5075027;28;20055;-75
2021/09/13 11:26:10;;;;;;;5.90;0.82;;;19.10;99.90;;;;;;5074676;28;20048;-76
2021/09/13 11:28:52;;;;;;;4.03;0.52;;;19.20;99.90;;;;;;5072864;28;20124;-75
2021/09/13 11:31:57;;;;;;;3.15;0.75;;;19.20;99.90;;;;;;5074482;28;20044;-74
2021/09/13 11:34:30;;;;;;;1.98;0.90;;;19.00;99.90;;;;;;5055476;28;20076;-74
2021/09/13 11:37:00;;;;;;;;;;;19.20;99.90;;;;;;5072707;28;20040;-74
2021/09/13 11:39:54;;;;;;;2.65;0.80;;;19.20;99.90;;;;;;5071965;28;19916;-74
2021/09/13 11:42:25;;;;;;;2.03;0.95;;;19.30;99.90;;;;;;5071726;28;20051;-74
2021/09/13 11:44:57;;;;;;;1.90;0.73;;;18.80;99.90;;;;;;5056480;28;20423;-74
2021/09/13 11:47:28;;;;;;;3.45;0.70;;;19.20;99.90;;;;;;5072933;28;20044;-74
2021/09/13 11:49:56;;;;;;;2.15;0.52;;;19.20;99.90;;;;;;5072508;28;20052;-73
2021/09/13 11:52:30;;;;;;;4.20;0.77;;;19.20;99.90;;;;;;5073934;28;20044;-75
2021/09/13 11:55:02;;;;;;;3.83;0.90;;;19.20;99.90;;;;;;5073865;28;20051;-75
2021/09/13 11:57:31;;;;;;;4.07;0.77;;;19.10;99.90;;;;;;5073116;28;20047;-75
2021/09/13 12:00:01;;;;;;;2.78;1.00;;;19.10;99.90;;;;;;5072470;28;20040;-75
2021/09/13 12:02:28;;;;;;;3.97;0.85;;;19.00;99.90;;;;;;5074512;28;20089;-76
2021/09/13 12:04:55;;;;;;;1.52;0.90;;;18.90;99.90;;;;;;5073822;28;20488;-76
2021/09/13 12:07:21;;;;;;;4.45;1.50;;;18.90;99.90;;;;;;5074331;28;20404;-76
2021/09/13 12:09:48;;;;;;;4.72;1.30;;;18.80;99.90;;;;;;5072395;28;20045;-75
2021/09/13 12:12:25;;;;;;;2.80;0.65;;;18.70;99.90;;;;;;5073846;28;20039;-75
2021/09/13 12:15:02;;;;;;;1.42;0.50;;;18.70;99.90;;;;;;5074174;28;20409;-75
2021/09/13 12:17:43;;;;;;;1.98;0.35;;;18.60;99.90;;;;;;5073865;28;20047;-75
2021/09/13 12:20:30;;;;;;;3.58;0.50;;;18.50;99.90;;;;;;5072997;28;20424;-75
2021/09/13 12:23:08;;;;;;;3.05;0.70;;;18.50;99.90;;;;;;5073436;28;20476;-75
2021/09/13 12:25:45;;;;;;;1.48;0.60;;;18.50;99.90;;;;;;5074116;28;20040;-75
2021/09/13 12:28:12;;;;;;;1.92;0.57;;;18.50;99.90;;;;;;5072944;28;20464;-76
2021/09/13 12:30:41;;;;;;;1.65;0.55;;;18.50;99.90;;;;;;5072279;28;20036;-75
2021/09/13 12:33:11;;;;;;;2.85;0.70;;;18.50;99.90;;;;;;5073602;28;20115;-75
2021/09/13 12:35:46;;;;;;;2.38;0.60;;;18.50;99.90;;;;;;5073703;28;20045;-75
2021/09/13 12:38:17;;;;;;;2.22;0.70;;;18.50;99.90;;;;;;5073380;28;20426;-75
2021/09/13 12:40:47;;;;;;;2.80;0.68;;;18.50;99.90;;;;;;5071825;28;20075;-75
2021/09/13 12:43:23;;;;;;;2.90;0.77;;;18.50;99.90;;;;;;5071945;28;20400;-75
2021/09/13 12:46:00;;;;;;;1.20;0.38;;;18.50;99.90;;;;;;5072246;28;20036;-75
2021/09/13 12:48:27;;;;;;;2.40;0.73;;;18.60;99.90;;;;;;5073688;28;20085;-75
2021/09/13 12:50:55;;;;;;;3.50;0.60;;;18.60;99.90;;;;;;5072905;28;20037;-75
2021/09/13 12:53:27;;;;;;;4.60;1.33;;;18.70;99.90;;;;;;5072570;28;20444;-75
2021/09/13 12:55:54;;;;;;;2.15;0.50;;;18.80;99.90;;;;;;5073146;28;20509;-75
2021/09/13 12:58:26;;;;;;;3.88;0.70;;;18.80;99.90;;;;;;5072077;28;20044;-75